sensor_id;sensor_type;location;lat;lon;timestamp;temperature;humidity
28374;DHT22;15616;40.148;-102.718;2023-04-23T00:00:48;20.30;50.20
28374;DHT22;15616;40.148;-102.718;2023-04-23T00:03:16;20.30;50.20
28374;DHT22;15616;40.148;-102.718;2023-04-23T00:05:43;20.20;50.20
28374;DHT22;15616;40.148;-102.718;2023-04-23T00:08:10;20.30;50.30
28374;DHT22;15616;40.148;-102.718;2023-04-23T00:10:36;20.30;50.20
28374;DHT22;15616;40.148;-102.718;2023-04-23T00:13:02;20.30;50.30
28374;DHT22;15616;40.148;-102.718;2023-04-23T00:15:28;20.20;50.20
28374;DHT22;15616;40.148;-102.718;2023-04-23T00:17:54;20.30;50.30
28374;DHT22;15616;40.148;-102.718;2023-04-23T00:20:20;20.20;50.20
28374;DHT22;15616;40.148;-102.718;2023-04-23T00:22:46;20.30;50.30
28374;DHT22;15616;40.148;-102.718;2023-04-23T00:25:11;20.30;50.30
28374;DHT22;15616;40.148;-102.718;2023-04-23T00:27:37;20.20;50.20
28374;DHT22;15616;40.148;-102.718;2023-04-23T00:30:03;20.30;50.30
28374;DHT22;15616;40.148;-102.718;2023-04-23T00:32:29;20.20;50.30
28374;DHT22;15616;40.148;-102.718;2023-04-23T00:34:55;20.20;50.30
28374;DHT22;15616;40.148;-102.718;2023-04-23T00:37:21;20.20;50.30
28374;DHT22;15616;40.148;-102.718;2023-04-23T00:39:46;20.20;50.20
28374;DHT22;15616;40.148;-102.718;2023-04-23T00:42:12;20.20;50.20
28374;DHT22;15616;40.148;-102.718;2023-04-23T00:44:38;20.20;50.30
28374;DHT22;15616;40.148;-102.718;2023-04-23T00:47:04;20.20;50.30
28374;DHT22;15616;40.148;-102.718;2023-04-23T00:49:30;20.20;50.30
28374;DHT22;15616;40.148;-102.718;2023-04-23T00:51:57;20.20;50.30
28374;DHT22;15616;40.148;-102.718;2023-04-23T00:54:23;20.20;50.30
28374;DHT22;15616;40.148;-102.718;2023-04-23T00:56:49;20.20;50.30
28374;DHT22;15616;40.148;-102.718;2023-04-23T00:59:14;20.20;50.30
28374;DHT22;15616;40.148;-102.718;2023-04-23T01:01:40;20.20;50.30
28374;DHT22;15616;40.148;-102.718;2023-04-23T01:04:06;20.20;50.30
28374;DHT22;15616;40.148;-102.718;2023-04-23T01:06:34;20.20;50.30
28374;DHT22;15616;40.148;-102.718;2023-04-23T01:08:59;20.20;50.30
28374;DHT22;15616;40.148;-102.718;2023-04-23T01:11:25;20.20;50.30
28374;DHT22;15616;40.148;-102.718;2023-04-23T01:13:51;20.20;50.40
28374;DHT22;15616;40.148;-102.718;2023-04-23T01:16:17;20.20;50.40
28374;DHT22;15616;40.148;-102.718;2023-04-23T01:18:43;20.20;50.40
28374;DHT22;15616;40.148;-102.718;2023-04-23T01:21:09;20.20;50.40
28374;DHT22;15616;40.148;-102.718;2023-04-23T01:23:36;20.20;50.40
28374;DHT22;15616;40.148;-102.718;2023-04-23T01:26:02;20.20;50.40
28374;DHT22;15616;40.148;-102.718;2023-04-23T01:28:28;20.20;50.40
28374;DHT22;15616;40.148;-102.718;2023-04-23T01:30:54;20.20;50.40
28374;DHT22;15616;40.148;-102.718;2023-04-23T01:33:20;20.20;50.40
28374;DHT22;15616;40.148;-102.718;2023-04-23T01:35:46;20.20;50.40
28374;DHT22;15616;40.148;-102.718;2023-04-23T01:38:13;20.20;50.40
28374;DHT22;15616;40.148;-102.718;2023-04-23T01:40:40;20.20;50.40
28374;DHT22;15616;40.148;-102.718;2023-04-23T01:43:07;20.20;50.40
28374;DHT22;15616;40.148;-102.718;2023-04-23T01:45:33;20.20;50.40
28374;DHT22;15616;40.148;-102.718;2023-04-23T01:47:58;20.20;50.40
28374;DHT22;15616;40.148;-102.718;2023-04-23T01:50:25;20.20;50.50
28374;DHT22;15616;40.148;-102.718;2023-04-23T01:52:52;20.20;50.50
28374;DHT22;15616;40.148;-102.718;2023-04-23T01:55:17;20.10;50.40
28374;DHT22;15616;40.148;-102.718;2023-04-23T01:57:44;20.20;50.40
28374;DHT22;15616;40.148;-102.718;2023-04-23T02:00:11;20.10;50.40
28374;DHT22;15616;40.148;-102.718;2023-04-23T02:02:37;20.10;51.10
28374;DHT22;15616;40.148;-102.718;2023-04-23T02:05:03;20.20;50.50
28374;DHT22;15616;40.148;-102.718;2023-04-23T02:07:33;20.10;50.40
28374;DHT22;15616;40.148;-102.718;2023-04-23T02:10:00;20.10;50.40
28374;DHT22;15616;40.148;-102.718;2023-04-23T02:12:26;20.10;50.40
28374;DHT22;15616;40.148;-102.718;2023-04-23T02:14:52;20.10;50.40
28374;DHT22;15616;40.148;-102.718;2023-04-23T02:17:20;20.10;50.40
28374;DHT22;15616;40.148;-102.718;2023-04-23T02:19:47;20.10;50.50
28374;DHT22;15616;40.148;-102.718;2023-04-23T02:22:13;20.10;50.50
28374;DHT22;15616;40.148;-102.718;2023-04-23T02:24:39;20.10;50.50
28374;DHT22;15616;40.148;-102.718;2023-04-23T02:27:06;20.10;50.40
28374;DHT22;15616;40.148;-102.718;2023-04-23T02:29:32;20.10;50.40
28374;DHT22;15616;40.148;-102.718;2023-04-23T02:31:58;20.10;51.10
28374;DHT22;15616;40.148;-102.718;2023-04-23T02:34:24;20.10;50.40
28374;DHT22;15616;40.148;-102.718;2023-04-23T02:36:49;20.10;50.40
28374;DHT22;15616;40.148;-102.718;2023-04-23T02:39:15;20.10;50.50
28374;DHT22;15616;40.148;-102.718;2023-04-23T02:41:41;20.10;50.40
28374;DHT22;15616;40.148;-102.718;2023-04-23T02:44:07;20.10;50.50
28374;DHT22;15616;40.148;-102.718;2023-04-23T02:46:32;20.10;50.50
28374;DHT22;15616;40.148;-102.718;2023-04-23T02:49:00;20.10;50.50
28374;DHT22;15616;40.148;-102.718;2023-04-23T02:51:26;20.10;50.50
28374;DHT22;15616;40.148;-102.718;2023-04-23T02:53:52;20.10;50.50
28374;DHT22;15616;40.148;-102.718;2023-04-23T02:56:17;20.10;50.50
28374;DHT22;15616;40.148;-102.718;2023-04-23T02:58:44;20.10;50.40
28374;DHT22;15616;40.148;-102.718;2023-04-23T03:01:09;20.10;50.50
28374;DHT22;15616;40.148;-102.718;2023-04-23T03:03:35;20.10;50.50
28374;DHT22;15616;40.148;-102.718;2023-04-23T03:06:01;20.10;50.50
28374;DHT22;15616;40.148;-102.718;2023-04-23T03:08:27;20.10;50.50
28374;DHT22;15616;40.148;-102.718;2023-04-23T03:10:52;20.10;50.50
28374;DHT22;15616;40.148;-102.718;2023-04-23T03:13:18;20.10;50.50
28374;DHT22;15616;40.148;-102.718;2023-04-23T03:15:44;20.10;50.50
28374;DHT22;15616;40.148;-102.718;2023-04-23T03:18:10;20.10;50.50
28374;DHT22;15616;40.148;-102.718;2023-04-23T03:20:35;20.10;50.50
28374;DHT22;15616;40.148;-102.718;2023-04-23T03:23:01;20.10;50.50
28374;DHT22;15616;40.148;-102.718;2023-04-23T03:25:27;20.10;50.50
28374;DHT22;15616;40.148;-102.718;2023-04-23T03:27:53;20.10;50.50
28374;DHT22;15616;40.148;-102.718;2023-04-23T03:30:19;20.10;50.50
28374;DHT22;15616;40.148;-102.718;2023-04-23T03:32:45;20.10;50.50
28374;DHT22;15616;40.148;-102.718;2023-04-23T03:35:13;20.10;50.50
28374;DHT22;15616;40.148;-102.718;2023-04-23T03:37:39;20.10;50.50
28374;DHT22;15616;40.148;-102.718;2023-04-23T03:40:05;20.00;50.40
28374;DHT22;15616;40.148;-102.718;2023-04-23T03:42:32;20.10;50.50
28374;DHT22;15616;40.148;-102.718;2023-04-23T03:44:58;20.10;50.50
28374;DHT22;15616;40.148;-102.718;2023-04-23T03:47:24;20.10;50.50
28374;DHT22;15616;40.148;-102.718;2023-04-23T03:49:50;20.10;50.50
28374;DHT22;15616;40.148;-102.718;2023-04-23T03:52:15;20.10;50.50
28374;DHT22;15616;40.148;-102.718;2023-04-23T03:54:41;20.10;50.50
28374;DHT22;15616;40.148;-102.718;2023-04-23T03:57:07;20.10;50.60
28374;DHT22;15616;40.148;-102.718;2023-04-23T03:59:33;20.10;50.60
28374;DHT22;15616;40.148;-102.718;2023-04-23T04:01:59;20.10;50.50
28374;DHT22;15616;40.148;-102.718;2023-04-23T04:04:25;20.00;50.50
28374;DHT22;15616;40.148;-102.718;2023-04-23T04:06:51;20.10;50.50
28374;DHT22;15616;40.148;-102.718;2023-04-23T04:09:16;20.10;50.60
28374;DHT22;15616;40.148;-102.718;2023-04-23T04:11:42;20.10;50.60
28374;DHT22;15616;40.148;-102.718;2023-04-23T04:14:08;20.00;50.50
28374;DHT22;15616;40.148;-102.718;2023-04-23T04:16:33;20.10;50.60
28374;DHT22;15616;40.148;-102.718;2023-04-23T04:18:59;20.10;50.60
28374;DHT22;15616;40.148;-102.718;2023-04-23T04:21:25;20.10;50.60
28374;DHT22;15616;40.148;-102.718;2023-04-23T04:23:52;20.00;50.50
28374;DHT22;15616;40.148;-102.718;2023-04-23T04:26:18;20.00;50.50
28374;DHT22;15616;40.148;-102.718;2023-04-23T04:28:44;20.10;50.60
28374;DHT22;15616;40.148;-102.718;2023-04-23T04:31:11;20.00;50.50
28374;DHT22;15616;40.148;-102.718;2023-04-23T04:33:38;20.10;50.60
28374;DHT22;15616;40.148;-102.718;2023-04-23T04:36:04;20.10;50.60
28374;DHT22;15616;40.148;-102.718;2023-04-23T04:38:30;20.10;50.50
28374;DHT22;15616;40.148;-102.718;2023-04-23T04:40:55;20.00;50.50
28374;DHT22;15616;40.148;-102.718;2023-04-23T04:43:24;20.00;50.50
28374;DHT22;15616;40.148;-102.718;2023-04-23T04:45:51;20.00;50.50
28374;DHT22;15616;40.148;-102.718;2023-04-23T04:48:16;20.10;50.50
28374;DHT22;15616;40.148;-102.718;2023-04-23T04:50:42;20.10;50.60
28374;DHT22;15616;40.148;-102.718;2023-04-23T04:53:08;20.10;50.60
28374;DHT22;15616;40.148;-102.718;2023-04-23T04:55:34;20.00;50.50
28374;DHT22;15616;40.148;-102.718;2023-04-23T04:58:00;20.10;50.60
28374;DHT22;15616;40.148;-102.718;2023-04-23T05:00:26;20.00;50.50
28374;DHT22;15616;40.148;-102.718;2023-04-23T05:02:55;20.10;50.50
28374;DHT22;15616;40.148;-102.718;2023-04-23T05:05:22;20.00;50.50
28374;DHT22;15616;40.148;-102.718;2023-04-23T05:07:48;20.10;50.50
28374;DHT22;15616;40.148;-102.718;2023-04-23T05:10:14;20.10;50.50
28374;DHT22;15616;40.148;-102.718;2023-04-23T05:12:40;20.10;50.40
28374;DHT22;15616;40.148;-102.718;2023-04-23T05:15:07;20.10;50.40
28374;DHT22;15616;40.148;-102.718;2023-04-23T05:17:33;20.10;50.40
28374;DHT22;15616;40.148;-102.718;2023-04-23T05:19:58;20.10;50.40
28374;DHT22;15616;40.148;-102.718;2023-04-23T05:22:25;20.10;50.40
28374;DHT22;15616;40.148;-102.718;2023-04-23T05:24:51;20.10;50.50
28374;DHT22;15616;40.148;-102.718;2023-04-23T05:27:17;20.10;50.40
28374;DHT22;15616;40.148;-102.718;2023-04-23T05:29:42;20.10;50.40
28374;DHT22;15616;40.148;-102.718;2023-04-23T05:32:08;20.20;50.50
28374;DHT22;15616;40.148;-102.718;2023-04-23T05:34:34;20.20;50.40
28374;DHT22;15616;40.148;-102.718;2023-04-23T05:37:00;20.20;50.40
28374;DHT22;15616;40.148;-102.718;2023-04-23T05:39:26;20.20;50.40
28374;DHT22;15616;40.148;-102.718;2023-04-23T05:41:52;20.20;50.40
28374;DHT22;15616;40.148;-102.718;2023-04-23T05:44:18;20.20;50.40
28374;DHT22;15616;40.148;-102.718;2023-04-23T05:46:43;20.20;50.50
28374;DHT22;15616;40.148;-102.718;2023-04-23T05:49:09;20.20;50.50
28374;DHT22;15616;40.148;-102.718;2023-04-23T05:51:34;20.20;50.50
28374;DHT22;15616;40.148;-102.718;2023-04-23T05:54:00;20.20;50.50
28374;DHT22;15616;40.148;-102.718;2023-04-23T05:56:26;20.20;50.50
28374;DHT22;15616;40.148;-102.718;2023-04-23T05:58:52;20.20;50.50
28374;DHT22;15616;40.148;-102.718;2023-04-23T06:01:17;20.20;50.60
28374;DHT22;15616;40.148;-102.718;2023-04-23T06:03:43;20.20;50.50
28374;DHT22;15616;40.148;-102.718;2023-04-23T06:06:10;20.20;50.50
28374;DHT22;15616;40.148;-102.718;2023-04-23T06:08:36;20.20;50.60
28374;DHT22;15616;40.148;-102.718;2023-04-23T06:11:03;20.20;50.50
28374;DHT22;15616;40.148;-102.718;2023-04-23T06:13:29;20.20;50.50
28374;DHT22;15616;40.148;-102.718;2023-04-23T06:15:56;20.20;50.50
28374;DHT22;15616;40.148;-102.718;2023-04-23T06:18:21;20.20;50.50
28374;DHT22;15616;40.148;-102.718;2023-04-23T06:20:47;20.20;50.50
28374;DHT22;15616;40.148;-102.718;2023-04-23T06:23:13;20.20;50.60
28374;DHT22;15616;40.148;-102.718;2023-04-23T06:25:39;20.20;50.60
28374;DHT22;15616;40.148;-102.718;2023-04-23T06:28:05;20.20;50.60
28374;DHT22;15616;40.148;-102.718;2023-04-23T06:30:30;20.20;50.60
28374;DHT22;15616;40.148;-102.718;2023-04-23T06:32:56;20.20;50.60
28374;DHT22;15616;40.148;-102.718;2023-04-23T06:35:22;20.20;50.60
28374;DHT22;15616;40.148;-102.718;2023-04-23T06:37:47;20.20;50.50
28374;DHT22;15616;40.148;-102.718;2023-04-23T06:40:13;20.20;50.50
28374;DHT22;15616;40.148;-102.718;2023-04-23T06:42:39;20.20;50.40
28374;DHT22;15616;40.148;-102.718;2023-04-23T06:45:05;20.20;50.50
28374;DHT22;15616;40.148;-102.718;2023-04-23T06:47:31;20.20;50.40
28374;DHT22;15616;40.148;-102.718;2023-04-23T06:49:57;20.20;50.40
28374;DHT22;15616;40.148;-102.718;2023-04-23T06:52:24;20.20;50.50
28374;DHT22;15616;40.148;-102.718;2023-04-23T06:54:50;20.20;50.50
28374;DHT22;15616;40.148;-102.718;2023-04-23T06:57:16;20.20;50.50
28374;DHT22;15616;40.148;-102.718;2023-04-23T06:59:41;20.20;50.50
28374;DHT22;15616;40.148;-102.718;2023-04-23T07:02:07;20.20;50.50
28374;DHT22;15616;40.148;-102.718;2023-04-23T07:04:33;20.20;50.50
28374;DHT22;15616;40.148;-102.718;2023-04-23T07:06:58;20.20;50.50
28374;DHT22;15616;40.148;-102.718;2023-04-23T07:09:25;20.20;50.50
28374;DHT22;15616;40.148;-102.718;2023-04-23T07:11:51;20.20;50.50
28374;DHT22;15616;40.148;-102.718;2023-04-23T07:14:17;20.20;50.50
28374;DHT22;15616;40.148;-102.718;2023-04-23T07:16:42;20.20;50.50
28374;DHT22;15616;40.148;-102.718;2023-04-23T07:19:08;20.30;50.50
28374;DHT22;15616;40.148;-102.718;2023-04-23T07:21:34;20.30;50.50
28374;DHT22;15616;40.148;-102.718;2023-04-23T07:24:00;20.30;50.50
28374;DHT22;15616;40.148;-102.718;2023-04-23T07:26:31;20.30;50.50
28374;DHT22;15616;40.148;-102.718;2023-04-23T07:28:57;20.30;50.50
28374;DHT22;15616;40.148;-102.718;2023-04-23T07:31:23;20.30;50.50
28374;DHT22;15616;40.148;-102.718;2023-04-23T07:33:49;20.30;50.50
28374;DHT22;15616;40.148;-102.718;2023-04-23T07:36:14;20.30;50.50
28374;DHT22;15616;40.148;-102.718;2023-04-23T07:38:40;20.30;50.50
28374;DHT22;15616;40.148;-102.718;2023-04-23T07:41:06;20.30;50.60
28374;DHT22;15616;40.148;-102.718;2023-04-23T07:43:31;20.30;50.60
28374;DHT22;15616;40.148;-102.718;2023-04-23T07:45:57;20.30;50.60
28374;DHT22;15616;40.148;-102.718;2023-04-23T07:48:23;20.30;50.60
28374;DHT22;15616;40.148;-102.718;2023-04-23T07:50:48;20.30;50.50
28374;DHT22;15616;40.148;-102.718;2023-04-23T07:53:14;20.30;51.20
28374;DHT22;15616;40.148;-102.718;2023-04-23T07:55:39;20.30;50.40
28374;DHT22;15616;40.148;-102.718;2023-04-23T07:58:05;20.30;50.40
28374;DHT22;15616;40.148;-102.718;2023-04-23T08:00:31;20.30;50.40
28374;DHT22;15616;40.148;-102.718;2023-04-23T08:02:57;20.30;51.00
28374;DHT22;15616;40.148;-102.718;2023-04-23T08:05:23;20.40;50.40
28374;DHT22;15616;40.148;-102.718;2023-04-23T08:07:48;20.40;50.40
28374;DHT22;15616;40.148;-102.718;2023-04-23T08:10:14;20.30;50.30
28374;DHT22;15616;40.148;-102.718;2023-04-23T08:12:40;20.40;50.40
28374;DHT22;15616;40.148;-102.718;2023-04-23T08:15:06;20.40;50.30
28374;DHT22;15616;40.148;-102.718;2023-04-23T08:17:31;20.40;50.30
28374;DHT22;15616;40.148;-102.718;2023-04-23T08:19:57;20.40;50.30
28374;DHT22;15616;40.148;-102.718;2023-04-23T08:22:23;20.40;50.20
28374;DHT22;15616;40.148;-102.718;2023-04-23T08:24:48;20.40;50.20
28374;DHT22;15616;40.148;-102.718;2023-04-23T08:27:14;20.40;50.20
28374;DHT22;15616;40.148;-102.718;2023-04-23T08:29:40;20.40;50.20
28374;DHT22;15616;40.148;-102.718;2023-04-23T08:32:05;20.40;50.20
28374;DHT22;15616;40.148;-102.718;2023-04-23T08:34:31;20.40;50.20
28374;DHT22;15616;40.148;-102.718;2023-04-23T08:36:57;20.40;50.30
28374;DHT22;15616;40.148;-102.718;2023-04-23T08:39:23;20.40;50.30
28374;DHT22;15616;40.148;-102.718;2023-04-23T08:41:52;20.40;50.30
28374;DHT22;15616;40.148;-102.718;2023-04-23T08:44:20;20.40;50.30
28374;DHT22;15616;40.148;-102.718;2023-04-23T08:46:47;20.50;50.30
28374;DHT22;15616;40.148;-102.718;2023-04-23T08:49:16;20.50;50.30
28374;DHT22;15616;40.148;-102.718;2023-04-23T08:51:43;20.50;50.30
28374;DHT22;15616;40.148;-102.718;2023-04-23T08:54:12;20.50;50.20
28374;DHT22;15616;40.148;-102.718;2023-04-23T08:56:39;20.50;50.20
28374;DHT22;15616;40.148;-102.718;2023-04-23T08:59:05;20.50;50.20
28374;DHT22;15616;40.148;-102.718;2023-04-23T09:01:32;20.50;50.30
28374;DHT22;15616;40.148;-102.718;2023-04-23T09:03:59;20.50;50.30
28374;DHT22;15616;40.148;-102.718;2023-04-23T09:06:25;20.50;50.30
28374;DHT22;15616;40.148;-102.718;2023-04-23T09:08:51;20.50;50.30
28374;DHT22;15616;40.148;-102.718;2023-04-23T09:11:17;20.50;50.30
28374;DHT22;15616;40.148;-102.718;2023-04-23T09:13:43;20.50;50.20
28374;DHT22;15616;40.148;-102.718;2023-04-23T09:16:09;20.50;50.20
28374;DHT22;15616;40.148;-102.718;2023-04-23T09:18:35;20.50;50.20
28374;DHT22;15616;40.148;-102.718;2023-04-23T09:21:00;20.50;50.20
28374;DHT22;15616;40.148;-102.718;2023-04-23T09:23:28;20.50;50.20
28374;DHT22;15616;40.148;-102.718;2023-04-23T09:25:56;20.50;50.30
28374;DHT22;15616;40.148;-102.718;2023-04-23T09:28:32;20.50;50.30
28374;DHT22;15616;40.148;-102.718;2023-04-23T09:30:58;20.50;50.20
28374;DHT22;15616;40.148;-102.718;2023-04-23T09:33:24;20.50;50.20
28374;DHT22;15616;40.148;-102.718;2023-04-23T09:35:49;20.50;50.20
28374;DHT22;15616;40.148;-102.718;2023-04-23T09:38:17;20.50;50.20
28374;DHT22;15616;40.148;-102.718;2023-04-23T09:40:43;20.60;50.20
28374;DHT22;15616;40.148;-102.718;2023-04-23T09:43:09;20.60;50.20
28374;DHT22;15616;40.148;-102.718;2023-04-23T09:45:35;20.60;50.20
28374;DHT22;15616;40.148;-102.718;2023-04-23T09:48:01;20.60;50.10
28374;DHT22;15616;40.148;-102.718;2023-04-23T09:50:39;20.60;50.20
28374;DHT22;15616;40.148;-102.718;2023-04-23T09:53:07;20.60;50.10
28374;DHT22;15616;40.148;-102.718;2023-04-23T09:55:36;20.60;50.10
28374;DHT22;15616;40.148;-102.718;2023-04-23T09:58:10;20.60;50.80
28374;DHT22;15616;40.148;-102.718;2023-04-23T10:00:37;20.60;50.10
28374;DHT22;15616;40.148;-102.718;2023-04-23T10:03:03;20.60;50.00
28374;DHT22;15616;40.148;-102.718;2023-04-23T10:05:31;20.60;50.10
28374;DHT22;15616;40.148;-102.718;2023-04-23T10:07:57;20.60;50.00
28374;DHT22;15616;40.148;-102.718;2023-04-23T10:10:23;20.60;50.00
28374;DHT22;15616;40.148;-102.718;2023-04-23T10:12:49;20.60;50.00
28374;DHT22;15616;40.148;-102.718;2023-04-23T10:15:16;20.70;50.00
28374;DHT22;15616;40.148;-102.718;2023-04-23T10:17:42;20.70;50.00
28374;DHT22;15616;40.148;-102.718;2023-04-23T10:20:08;20.70;49.90
28374;DHT22;15616;40.148;-102.718;2023-04-23T10:22:34;20.70;49.90
28374;DHT22;15616;40.148;-102.718;2023-04-23T10:25:07;20.70;49.90
28374;DHT22;15616;40.148;-102.718;2023-04-23T10:27:36;20.70;49.80
28374;DHT22;15616;40.148;-102.718;2023-04-23T10:30:03;20.80;50.50
28374;DHT22;15616;40.148;-102.718;2023-04-23T10:32:30;20.80;49.80
28374;DHT22;15616;40.148;-102.718;2023-04-23T10:34:57;20.80;50.40
28374;DHT22;15616;40.148;-102.718;2023-04-23T10:37:23;20.80;49.70
28374;DHT22;15616;40.148;-102.718;2023-04-23T10:39:49;20.80;49.70
28374;DHT22;15616;40.148;-102.718;2023-04-23T10:42:18;20.80;49.70
28374;DHT22;15616;40.148;-102.718;2023-04-23T10:44:44;20.80;49.70
28374;DHT22;15616;40.148;-102.718;2023-04-23T10:47:16;20.80;49.60
28374;DHT22;15616;40.148;-102.718;2023-04-23T10:49:42;20.80;49.60
28374;DHT22;15616;40.148;-102.718;2023-04-23T10:52:17;20.80;49.60
28374;DHT22;15616;40.148;-102.718;2023-04-23T10:54:46;20.90;49.60
28374;DHT22;15616;40.148;-102.718;2023-04-23T10:57:12;20.90;50.20
28374;DHT22;15616;40.148;-102.718;2023-04-23T10:59:51;20.90;49.60
28374;DHT22;15616;40.148;-102.718;2023-04-23T11:02:17;20.90;49.50
28374;DHT22;15616;40.148;-102.718;2023-04-23T11:04:51;20.90;49.50
28374;DHT22;15616;40.148;-102.718;2023-04-23T11:07:18;20.90;49.50
28374;DHT22;15616;40.148;-102.718;2023-04-23T11:09:47;20.90;49.50
28374;DHT22;15616;40.148;-102.718;2023-04-23T11:14:48;20.90;49.50
28374;DHT22;15616;40.148;-102.718;2023-04-23T11:17:19;20.90;49.50
28374;DHT22;15616;40.148;-102.718;2023-04-23T11:22:45;20.90;49.50
28374;DHT22;15616;40.148;-102.718;2023-04-23T11:25:26;20.90;49.50
28374;DHT22;15616;40.148;-102.718;2023-04-23T11:27:55;20.90;49.50
28374;DHT22;15616;40.148;-102.718;2023-04-23T11:30:23;20.90;49.50
28374;DHT22;15616;40.148;-102.718;2023-04-23T11:32:50;20.90;49.50
28374;DHT22;15616;40.148;-102.718;2023-04-23T11:35:16;20.90;49.50
28374;DHT22;15616;40.148;-102.718;2023-04-23T11:37:42;20.90;49.40
28374;DHT22;15616;40.148;-102.718;2023-04-23T11:40:10;20.90;49.40
28374;DHT22;15616;40.148;-102.718;2023-04-23T11:42:43;20.90;49.40
28374;DHT22;15616;40.148;-102.718;2023-04-23T11:45:21;20.90;49.50
28374;DHT22;15616;40.148;-102.718;2023-04-23T11:47:48;20.90;49.50
28374;DHT22;15616;40.148;-102.718;2023-04-23T11:50:18;20.90;49.50
28374;DHT22;15616;40.148;-102.718;2023-04-23T11:52:44;20.90;49.50
28374;DHT22;15616;40.148;-102.718;2023-04-23T11:55:10;20.90;49.40
28374;DHT22;15616;40.148;-102.718;2023-04-23T11:57:40;20.90;49.40
28374;DHT22;15616;40.148;-102.718;2023-04-23T12:00:25;20.90;49.40
28374;DHT22;15616;40.148;-102.718;2023-04-23T12:05:29;21.00;49.40
28374;DHT22;15616;40.148;-102.718;2023-04-23T12:10:46;21.00;49.40
28374;DHT22;15616;40.148;-102.718;2023-04-23T12:13:16;21.00;49.40
28374;DHT22;15616;40.148;-102.718;2023-04-23T12:15:45;21.00;49.40
28374;DHT22;15616;40.148;-102.718;2023-04-23T12:18:11;21.00;49.40
28374;DHT22;15616;40.148;-102.718;2023-04-23T12:20:37;21.00;49.40
28374;DHT22;15616;40.148;-102.718;2023-04-23T12:23:05;21.00;49.40
28374;DHT22;15616;40.148;-102.718;2023-04-23T12:25:34;21.00;49.30
28374;DHT22;15616;40.148;-102.718;2023-04-23T12:28:01;21.00;49.30
28374;DHT22;15616;40.148;-102.718;2023-04-23T12:30:29;21.00;49.30
28374;DHT22;15616;40.148;-102.718;2023-04-23T12:33:02;21.00;49.30
28374;DHT22;15616;40.148;-102.718;2023-04-23T12:38:04;21.00;49.20
28374;DHT22;15616;40.148;-102.718;2023-04-23T12:40:29;21.00;49.20
28374;DHT22;15616;40.148;-102.718;2023-04-23T12:42:55;21.00;49.20
28374;DHT22;15616;40.148;-102.718;2023-04-23T12:45:21;21.10;49.20
28374;DHT22;15616;40.148;-102.718;2023-04-23T12:47:47;21.00;49.20
28374;DHT22;15616;40.148;-102.718;2023-04-23T12:50:12;21.10;49.20
28374;DHT22;15616;40.148;-102.718;2023-04-23T12:52:38;21.10;49.20
28374;DHT22;15616;40.148;-102.718;2023-04-23T12:55:04;21.10;49.10
28374;DHT22;15616;40.148;-102.718;2023-04-23T12:57:30;21.00;49.10
28374;DHT22;15616;40.148;-102.718;2023-04-23T12:59:56;21.10;49.20
28374;DHT22;15616;40.148;-102.718;2023-04-23T13:02:23;21.10;49.20
28374;DHT22;15616;40.148;-102.718;2023-04-23T13:04:49;21.10;49.20
28374;DHT22;15616;40.148;-102.718;2023-04-23T13:07:14;21.10;49.20
28374;DHT22;15616;40.148;-102.718;2023-04-23T13:09:40;21.10;49.20
28374;DHT22;15616;40.148;-102.718;2023-04-23T13:12:06;21.10;49.20
28374;DHT22;15616;40.148;-102.718;2023-04-23T13:14:31;21.10;49.10
28374;DHT22;15616;40.148;-102.718;2023-04-23T13:16:57;21.10;49.10
28374;DHT22;15616;40.148;-102.718;2023-04-23T13:19:23;21.10;49.10
28374;DHT22;15616;40.148;-102.718;2023-04-23T13:21:49;21.10;49.10
28374;DHT22;15616;40.148;-102.718;2023-04-23T13:24:14;21.10;49.10
28374;DHT22;15616;40.148;-102.718;2023-04-23T13:26:40;21.10;49.10
28374;DHT22;15616;40.148;-102.718;2023-04-23T13:29:06;21.10;49.20
28374;DHT22;15616;40.148;-102.718;2023-04-23T13:31:32;21.10;49.20
28374;DHT22;15616;40.148;-102.718;2023-04-23T13:33:58;21.10;49.10
28374;DHT22;15616;40.148;-102.718;2023-04-23T13:36:24;21.10;49.20
28374;DHT22;15616;40.148;-102.718;2023-04-23T13:38:50;21.10;49.20
28374;DHT22;15616;40.148;-102.718;2023-04-23T13:41:16;21.10;49.20
28374;DHT22;15616;40.148;-102.718;2023-04-23T13:43:41;21.10;49.20
28374;DHT22;15616;40.148;-102.718;2023-04-23T13:46:07;21.10;49.20
28374;DHT22;15616;40.148;-102.718;2023-04-23T13:48:33;21.00;49.10
28374;DHT22;15616;40.148;-102.718;2023-04-23T13:50:59;21.10;49.20
28374;DHT22;15616;40.148;-102.718;2023-04-23T13:53:26;21.10;49.20
28374;DHT22;15616;40.148;-102.718;2023-04-23T13:55:52;21.10;49.20
28374;DHT22;15616;40.148;-102.718;2023-04-23T13:58:18;21.10;49.20
28374;DHT22;15616;40.148;-102.718;2023-04-23T14:00:44;21.10;49.10
28374;DHT22;15616;40.148;-102.718;2023-04-23T14:03:10;21.10;49.10
28374;DHT22;15616;40.148;-102.718;2023-04-23T14:05:35;21.10;49.10
28374;DHT22;15616;40.148;-102.718;2023-04-23T14:08:02;21.10;49.10
28374;DHT22;15616;40.148;-102.718;2023-04-23T14:10:28;21.10;49.10
28374;DHT22;15616;40.148;-102.718;2023-04-23T14:12:54;21.10;49.10
28374;DHT22;15616;40.148;-102.718;2023-04-23T14:15:20;21.10;49.10
28374;DHT22;15616;40.148;-102.718;2023-04-23T14:17:46;21.10;49.10
28374;DHT22;15616;40.148;-102.718;2023-04-23T14:20:12;21.10;49.10
28374;DHT22;15616;40.148;-102.718;2023-04-23T14:22:40;21.10;49.10
28374;DHT22;15616;40.148;-102.718;2023-04-23T14:25:13;21.10;49.10
28374;DHT22;15616;40.148;-102.718;2023-04-23T14:27:40;21.10;49.20
28374;DHT22;15616;40.148;-102.718;2023-04-23T14:30:18;21.10;49.20
28374;DHT22;15616;40.148;-102.718;2023-04-23T14:32:45;21.10;49.20
28374;DHT22;15616;40.148;-102.718;2023-04-23T14:35:14;21.10;49.20
28374;DHT22;15616;40.148;-102.718;2023-04-23T14:37:40;21.10;49.20
28374;DHT22;15616;40.148;-102.718;2023-04-23T14:40:13;21.10;49.20
28374;DHT22;15616;40.148;-102.718;2023-04-23T14:42:47;21.00;49.20
28374;DHT22;15616;40.148;-102.718;2023-04-23T14:45:16;21.10;49.20
28374;DHT22;15616;40.148;-102.718;2023-04-23T14:47:45;21.10;49.20
28374;DHT22;15616;40.148;-102.718;2023-04-23T14:50:15;21.10;49.20
28374;DHT22;15616;40.148;-102.718;2023-04-23T14:52:42;21.10;49.20
28374;DHT22;15616;40.148;-102.718;2023-04-23T14:55:11;21.10;49.20
28374;DHT22;15616;40.148;-102.718;2023-04-23T14:57:37;21.10;49.20